sensor_id;sensor_type;location;lat;lon;timestamp;temperature;humidity
23122;DHT22;11730;51.248;22.534;2022-08-14T00:01:47;19.10;99.90
23122;DHT22;11730;51.248;22.534;2022-08-14T00:04:22;19.90;99.90
23122;DHT22;11730;51.248;22.534;2022-08-14T00:07:05;19.20;99.90
23122;DHT22;11730;51.248;22.534;2022-08-14T00:09:34;18.70;99.90
23122;DHT22;11730;51.248;22.534;2022-08-14T00:12:21;19.30;99.90
23122;DHT22;11730;51.248;22.534;2022-08-14T00:14:52;19.30;99.90
23122;DHT22;11730;51.248;22.534;2022-08-14T00:17:21;19.10;99.90
23122;DHT22;11730;51.248;22.534;2022-08-14T00:19:49;19.40;99.90
23122;DHT22;11730;51.248;22.534;2022-08-14T00:22:18;18.70;99.90
23122;DHT22;11730;51.248;22.534;2022-08-14T00:25:07;19.20;99.90
23122;DHT22;11730;51.248;22.534;2022-08-14T00:27:35;19.20;99.90
23122;DHT22;11730;51.248;22.534;2022-08-14T00:30:09;19.30;99.90
23122;DHT22;11730;51.248;22.534;2022-08-14T00:32:40;18.90;99.90
23122;DHT22;11730;51.248;22.534;2022-08-14T00:35:27;19.00;99.90
23122;DHT22;11730;51.248;22.534;2022-08-14T00:38:14;19.10;99.90
23122;DHT22;11730;51.248;22.534;2022-08-14T00:40:42;19.20;99.90
23122;DHT22;11730;51.248;22.534;2022-08-14T00:43:12;18.70;99.90
23122;DHT22;11730;51.248;22.534;2022-08-14T00:45:40;19.30;99.90
23122;DHT22;11730;51.248;22.534;2022-08-14T00:48:08;18.80;99.90
23122;DHT22;11730;51.248;22.534;2022-08-14T00:50:36;19.50;99.90
23122;DHT22;11730;51.248;22.534;2022-08-14T00:58:08;19.30;99.90
23122;DHT22;11730;51.248;22.534;2022-08-14T01:01:08;19.00;99.90
23122;DHT22;11730;51.248;22.534;2022-08-14T01:03:37;19.70;99.90
23122;DHT22;11730;51.248;22.534;2022-08-14T01:06:11;19.30;99.90
23122;DHT22;11730;51.248;22.534;2022-08-14T01:08:42;19.10;99.90
23122;DHT22;11730;51.248;22.534;2022-08-14T01:11:26;19.20;99.90
23122;DHT22;11730;51.248;22.534;2022-08-14T01:14:01;19.30;99.90
23122;DHT22;11730;51.248;22.534;2022-08-14T01:19:19;19.00;99.90
23122;DHT22;11730;51.248;22.534;2022-08-14T01:22:07;19.30;99.90
23122;DHT22;11730;51.248;22.534;2022-08-14T01:24:40;19.20;99.90
23122;DHT22;11730;51.248;22.534;2022-08-14T01:27:16;19.00;99.90
23122;DHT22;11730;51.248;22.534;2022-08-14T01:29:51;19.10;99.90
23122;DHT22;11730;51.248;22.534;2022-08-14T01:32:30;19.20;99.90
23122;DHT22;11730;51.248;22.534;2022-08-14T01:35:08;19.10;99.90
23122;DHT22;11730;51.248;22.534;2022-08-14T01:37:56;19.20;99.90
23122;DHT22;11730;51.248;22.534;2022-08-14T01:40:24;19.00;99.90
23122;DHT22;11730;51.248;22.534;2022-08-14T01:43:13;19.20;99.90
23122;DHT22;11730;51.248;22.534;2022-08-14T01:45:52;18.80;99.90
23122;DHT22;11730;51.248;22.534;2022-08-14T01:48:31;18.80;99.90
23122;DHT22;11730;51.248;22.534;2022-08-14T01:51:06;19.30;99.90
23122;DHT22;11730;51.248;22.534;2022-08-14T01:53:47;19.70;99.90
23122;DHT22;11730;51.248;22.534;2022-08-14T01:56:23;20.00;99.90
23122;DHT22;11730;51.248;22.534;2022-08-14T02:01:46;19.10;99.90
23122;DHT22;11730;51.248;22.534;2022-08-14T02:04:31;19.80;99.90
23122;DHT22;11730;51.248;22.534;2022-08-14T02:07:18;19.20;99.90
23122;DHT22;11730;51.248;22.534;2022-08-14T02:10:07;19.10;99.90
23122;DHT22;11730;51.248;22.534;2022-08-14T02:12:42;18.80;99.90
23122;DHT22;11730;51.248;22.534;2022-08-14T02:17:50;19.10;99.90
23122;DHT22;11730;51.248;22.534;2022-08-14T02:20:17;19.30;99.90
23122;DHT22;11730;51.248;22.534;2022-08-14T02:22:50;19.10;99.90
23122;DHT22;11730;51.248;22.534;2022-08-14T02:25:21;19.20;99.90
23122;DHT22;11730;51.248;22.534;2022-08-14T02:27:48;18.90;99.90
23122;DHT22;11730;51.248;22.534;2022-08-14T02:30:35;18.80;99.90
23122;DHT22;11730;51.248;22.534;2022-08-14T02:33:04;19.20;99.90
23122;DHT22;11730;51.248;22.534;2022-08-14T02:38:07;18.70;99.90
23122;DHT22;11730;51.248;22.534;2022-08-14T02:40:38;19.10;99.90
23122;DHT22;11730;51.248;22.534;2022-08-14T02:43:07;19.30;99.90
23122;DHT22;11730;51.248;22.534;2022-08-14T02:45:36;19.20;99.90
23122;DHT22;11730;51.248;22.534;2022-08-14T02:48:10;18.80;99.90
23122;DHT22;11730;51.248;22.534;2022-08-14T02:50:58;19.00;99.90
23122;DHT22;11730;51.248;22.534;2022-08-14T02:53:27;18.90;99.90
23122;DHT22;11730;51.248;22.534;2022-08-14T02:55:55;18.90;99.90
23122;DHT22;11730;51.248;22.534;2022-08-14T02:58:38;19.20;99.90
23122;DHT22;11730;51.248;22.534;2022-08-14T03:01:08;19.20;99.90
23122;DHT22;11730;51.248;22.534;2022-08-14T03:03:37;19.30;99.90
23122;DHT22;11730;51.248;22.534;2022-08-14T03:06:06;19.70;99.90
23122;DHT22;11730;51.248;22.534;2022-08-14T03:08:36;19.30;99.90
23122;DHT22;11730;51.248;22.534;2022-08-14T03:11:06;19.20;99.90
23122;DHT22;11730;51.248;22.534;2022-08-14T03:13:36;19.10;99.90
23122;DHT22;11730;51.248;22.534;2022-08-14T03:16:05;19.20;99.90
23122;DHT22;11730;51.248;22.534;2022-08-14T03:18:47;20.00;99.90
23122;DHT22;11730;51.248;22.534;2022-08-14T03:21:20;19.40;99.90
23122;DHT22;11730;51.248;22.534;2022-08-14T03:23:49;19.20;99.90
23122;DHT22;11730;51.248;22.534;2022-08-14T03:26:20;19.00;99.90
23122;DHT22;11730;51.248;22.534;2022-08-14T03:28:56;19.00;99.90
23122;DHT22;11730;51.248;22.534;2022-08-14T03:31:27;19.30;99.90
23122;DHT22;11730;51.248;22.534;2022-08-14T03:36:27;19.40;99.90
23122;DHT22;11730;51.248;22.534;2022-08-14T03:39:18;20.10;99.90
23122;DHT22;11730;51.248;22.534;2022-08-14T03:41:52;19.20;99.90
23122;DHT22;11730;51.248;22.534;2022-08-14T03:44:21;19.20;99.90
23122;DHT22;11730;51.248;22.534;2022-08-14T03:47:08;19.00;99.90
23122;DHT22;11730;51.248;22.534;2022-08-14T03:49:37;20.00;99.90
23122;DHT22;11730;51.248;22.534;2022-08-14T03:52:08;19.40;99.90
23122;DHT22;11730;51.248;22.534;2022-08-14T03:54:55;19.30;99.90
23122;DHT22;11730;51.248;22.534;2022-08-14T03:57:22;19.30;99.90
23122;DHT22;11730;51.248;22.534;2022-08-14T03:59:50;20.00;99.90
23122;DHT22;11730;51.248;22.534;2022-08-14T04:02:17;18.90;99.90
23122;DHT22;11730;51.248;22.534;2022-08-14T04:05:07;19.20;99.90
23122;DHT22;11730;51.248;22.534;2022-08-14T04:07:40;19.30;99.90
23122;DHT22;11730;51.248;22.534;2022-08-14T04:10:27;19.20;99.90
23122;DHT22;11730;51.248;22.534;2022-08-14T04:12:59;19.50;99.90
23122;DHT22;11730;51.248;22.534;2022-08-14T04:17:56;19.50;99.90
23122;DHT22;11730;51.248;22.534;2022-08-14T04:20:26;19.00;99.90
23122;DHT22;11730;51.248;22.534;2022-08-14T04:22:53;19.60;99.90
23122;DHT22;11730;51.248;22.534;2022-08-14T04:25:21;19.20;99.90
23122;DHT22;11730;51.248;22.534;2022-08-14T04:27:48;19.20;99.90
23122;DHT22;11730;51.248;22.534;2022-08-14T04:30:30;19.50;99.90
23122;DHT22;11730;51.248;22.534;2022-08-14T04:32:59;19.40;99.90
23122;DHT22;11730;51.248;22.534;2022-08-14T04:35:37;19.10;99.90
23122;DHT22;11730;51.248;22.534;2022-08-14T04:38:23;19.50;99.90
23122;DHT22;11730;51.248;22.534;2022-08-14T04:43:59;19.30;99.90
23122;DHT22;11730;51.248;22.534;2022-08-14T04:46:25;19.20;99.90
23122;DHT22;11730;51.248;22.534;2022-08-14T04:51:42;19.40;99.90
23122;DHT22;11730;51.248;22.534;2022-08-14T04:54:19;19.20;99.90
23122;DHT22;11730;51.248;22.534;2022-08-14T04:56:45;19.30;99.90
23122;DHT22;11730;51.248;22.534;2022-08-14T04:59:12;19.30;99.90
23122;DHT22;11730;51.248;22.534;2022-08-14T05:01:41;19.30;99.90
23122;DHT22;11730;51.248;22.534;2022-08-14T05:04:18;19.20;99.90
23122;DHT22;11730;51.248;22.534;2022-08-14T05:06:50;19.30;99.90
23122;DHT22;11730;51.248;22.534;2022-08-14T05:09:20;19.70;99.90
23122;DHT22;11730;51.248;22.534;2022-08-14T05:11:47;19.70;99.90
23122;DHT22;11730;51.248;22.534;2022-08-14T05:14:17;19.50;99.90
23122;DHT22;11730;51.248;22.534;2022-08-14T05:17:04;19.70;99.90
23122;DHT22;11730;51.248;22.534;2022-08-14T05:19:32;19.90;99.90
23122;DHT22;11730;51.248;22.534;2022-08-14T05:22:10;19.80;99.90
23122;DHT22;11730;51.248;22.534;2022-08-14T05:24:43;20.00;99.90
23122;DHT22;11730;51.248;22.534;2022-08-14T05:27:15;19.10;99.90
23122;DHT22;11730;51.248;22.534;2022-08-14T05:29:49;19.30;99.90
23122;DHT22;11730;51.248;22.534;2022-08-14T05:34:46;19.40;99.90
23122;DHT22;11730;51.248;22.534;2022-08-14T05:37:13;19.30;99.90
23122;DHT22;11730;51.248;22.534;2022-08-14T05:39:42;19.70;99.90
23122;DHT22;11730;51.248;22.534;2022-08-14T05:42:09;19.30;99.90
23122;DHT22;11730;51.248;22.534;2022-08-14T05:44:52;19.70;99.90
23122;DHT22;11730;51.248;22.534;2022-08-14T05:49:49;19.70;99.90
23122;DHT22;11730;51.248;22.534;2022-08-14T05:52:17;19.50;99.90
23122;DHT22;11730;51.248;22.534;2022-08-14T05:55:07;19.50;99.90
23122;DHT22;11730;51.248;22.534;2022-08-14T05:57:45;20.50;99.90
23122;DHT22;11730;51.248;22.534;2022-08-14T06:00:14;19.90;99.90
23122;DHT22;11730;51.248;22.534;2022-08-14T06:05:26;20.20;99.90
23122;DHT22;11730;51.248;22.534;2022-08-14T06:07:58;20.00;99.90
23122;DHT22;11730;51.248;22.534;2022-08-14T06:10:28;20.30;99.90
23122;DHT22;11730;51.248;22.534;2022-08-14T06:12:57;20.40;99.90
23122;DHT22;11730;51.248;22.534;2022-08-14T06:15:24;20.70;99.90
23122;DHT22;11730;51.248;22.534;2022-08-14T06:17:56;20.70;99.90
23122;DHT22;11730;51.248;22.534;2022-08-14T06:20:26;20.60;99.90
23122;DHT22;11730;51.248;22.534;2022-08-14T06:22:54;21.00;99.90
23122;DHT22;11730;51.248;22.534;2022-08-14T06:30:20;20.80;99.90
23122;DHT22;11730;51.248;22.534;2022-08-14T06:32:47;20.80;99.90
23122;DHT22;11730;51.248;22.534;2022-08-14T06:35:19;21.00;99.90
23122;DHT22;11730;51.248;22.534;2022-08-14T06:37:53;21.10;99.90
23122;DHT22;11730;51.248;22.534;2022-08-14T06:40:22;20.90;99.90
23122;DHT22;11730;51.248;22.534;2022-08-14T06:42:59;21.20;99.90
23122;DHT22;11730;51.248;22.534;2022-08-14T06:45:33;21.20;99.90
23122;DHT22;11730;51.248;22.534;2022-08-14T06:48:03;21.00;99.90
23122;DHT22;11730;51.248;22.534;2022-08-14T06:53:05;21.20;99.90
23122;DHT22;11730;51.248;22.534;2022-08-14T06:55:33;21.40;99.90
23122;DHT22;11730;51.248;22.534;2022-08-14T06:58:10;21.40;99.90
23122;DHT22;11730;51.248;22.534;2022-08-14T07:00:54;21.50;99.90
23122;DHT22;11730;51.248;22.534;2022-08-14T07:06:27;22.20;99.90
23122;DHT22;11730;51.248;22.534;2022-08-14T07:09:13;21.60;99.90
23122;DHT22;11730;51.248;22.534;2022-08-14T07:11:48;21.60;99.90
23122;DHT22;11730;51.248;22.534;2022-08-14T07:14:16;21.50;99.90
23122;DHT22;11730;51.248;22.534;2022-08-14T07:16:43;21.50;99.90
23122;DHT22;11730;51.248;22.534;2022-08-14T07:19:11;21.20;99.90
23122;DHT22;11730;51.248;22.534;2022-08-14T07:21:37;21.40;99.90
23122;DHT22;11730;51.248;22.534;2022-08-14T07:24:05;21.60;99.90
23122;DHT22;11730;51.248;22.534;2022-08-14T07:26:47;21.30;99.90
23122;DHT22;11730;51.248;22.534;2022-08-14T07:29:15;21.40;99.90
23122;DHT22;11730;51.248;22.534;2022-08-14T07:31:43;21.20;99.90
23122;DHT22;11730;51.248;22.534;2022-08-14T07:34:12;21.40;99.90
23122;DHT22;11730;51.248;22.534;2022-08-14T07:39:27;21.90;99.90
23122;DHT22;11730;51.248;22.534;2022-08-14T07:44:22;21.60;99.90
23122;DHT22;11730;51.248;22.534;2022-08-14T07:47:01;21.70;99.90
23122;DHT22;11730;51.248;22.534;2022-08-14T07:49:30;21.70;99.90
23122;DHT22;11730;51.248;22.534;2022-08-14T07:54:26;23.00;99.90
23122;DHT22;11730;51.248;22.534;2022-08-14T07:56:59;22.40;99.90
23122;DHT22;11730;51.248;22.534;2022-08-14T07:59:39;22.50;99.90
23122;DHT22;11730;51.248;22.534;2022-08-14T08:02:11;22.70;99.90
23122;DHT22;11730;51.248;22.534;2022-08-14T08:04:51;22.70;99.90
23122;DHT22;11730;51.248;22.534;2022-08-14T08:07:26;22.00;99.90
23122;DHT22;11730;51.248;22.534;2022-08-14T08:09:58;23.00;99.90
23122;DHT22;11730;51.248;22.534;2022-08-14T08:12:27;23.10;99.90
23122;DHT22;11730;51.248;22.534;2022-08-14T08:17:35;23.20;99.90
23122;DHT22;11730;51.248;22.534;2022-08-14T08:20:17;23.10;99.90
23122;DHT22;11730;51.248;22.534;2022-08-14T08:22:48;23.00;99.90
23122;DHT22;11730;51.248;22.534;2022-08-14T08:25:23;23.10;99.90
23122;DHT22;11730;51.248;22.534;2022-08-14T08:28:02;23.20;99.90
23122;DHT22;11730;51.248;22.534;2022-08-14T08:30:36;22.90;99.90
23122;DHT22;11730;51.248;22.534;2022-08-14T08:33:16;23.40;99.90
23122;DHT22;11730;51.248;22.534;2022-08-14T08:35:44;23.80;99.90
23122;DHT22;11730;51.248;22.534;2022-08-14T08:38:19;23.10;99.90
23122;DHT22;11730;51.248;22.534;2022-08-14T08:41:06;23.50;99.90
23122;DHT22;11730;51.248;22.534;2022-08-14T08:46:07;23.70;99.90
23122;DHT22;11730;51.248;22.534;2022-08-14T08:48:50;23.50;99.90
23122;DHT22;11730;51.248;22.534;2022-08-14T08:51:37;23.60;99.90
23122;DHT22;11730;51.248;22.534;2022-08-14T08:54:13;23.80;99.90
23122;DHT22;11730;51.248;22.534;2022-08-14T08:56:49;23.60;99.90
23122;DHT22;11730;51.248;22.534;2022-08-14T08:59:31;23.60;99.90
23122;DHT22;11730;51.248;22.534;2022-08-14T09:02:01;23.50;99.90
23122;DHT22;11730;51.248;22.534;2022-08-14T09:04:41;23.70;99.90
23122;DHT22;11730;51.248;22.534;2022-08-14T09:07:24;24.00;99.90
23122;DHT22;11730;51.248;22.534;2022-08-14T09:09:53;24.60;99.90
23122;DHT22;11730;51.248;22.534;2022-08-14T09:12:29;24.80;99.90
23122;DHT22;11730;51.248;22.534;2022-08-14T09:15:00;24.50;99.90
23122;DHT22;11730;51.248;22.534;2022-08-14T09:17:28;24.30;99.90
23122;DHT22;11730;51.248;22.534;2022-08-14T09:19:55;24.60;99.90
23122;DHT22;11730;51.248;22.534;2022-08-14T09:22:27;24.60;99.90
23122;DHT22;11730;51.248;22.534;2022-08-14T09:25:17;25.60;99.90
23122;DHT22;11730;51.248;22.534;2022-08-14T09:27:46;26.30;99.90
23122;DHT22;11730;51.248;22.534;2022-08-14T09:42:02;27.20;99.90
23122;DHT22;11730;51.248;22.534;2022-08-14T09:45:12;27.10;99.90
23122;DHT22;11730;51.248;22.534;2022-08-14T09:47:45;27.30;99.90
23122;DHT22;11730;51.248;22.534;2022-08-14T09:50:32;27.30;99.90
23122;DHT22;11730;51.248;22.534;2022-08-14T09:53:10;27.10;99.90
23122;DHT22;11730;51.248;22.534;2022-08-14T09:55:56;26.80;99.90
23122;DHT22;11730;51.248;22.534;2022-08-14T09:58:43;26.30;99.90
23122;DHT22;11730;51.248;22.534;2022-08-14T10:01:14;26.40;99.90
23122;DHT22;11730;51.248;22.534;2022-08-14T10:03:51;26.70;99.90
23122;DHT22;11730;51.248;22.534;2022-08-14T10:06:27;27.10;99.90
23122;DHT22;11730;51.248;22.534;2022-08-14T10:09:04;27.90;99.90
23122;DHT22;11730;51.248;22.534;2022-08-14T10:11:39;28.30;99.90
23122;DHT22;11730;51.248;22.534;2022-08-14T10:14:17;28.20;99.90
23122;DHT22;11730;51.248;22.534;2022-08-14T10:17:03;28.10;99.90
23122;DHT22;11730;51.248;22.534;2022-08-14T10:19:33;28.20;99.90
23122;DHT22;11730;51.248;22.534;2022-08-14T10:24:57;29.00;99.90
23122;DHT22;11730;51.248;22.534;2022-08-14T10:27:35;29.60;99.90
23122;DHT22;11730;51.248;22.534;2022-08-14T10:30:12;29.90;99.90
23122;DHT22;11730;51.248;22.534;2022-08-14T10:32:48;29.90;99.90
23122;DHT22;11730;51.248;22.534;2022-08-14T10:35:17;30.60;99.90
23122;DHT22;11730;51.248;22.534;2022-08-14T10:37:50;31.10;98.30
23122;DHT22;11730;51.248;22.534;2022-08-14T10:40:29;31.40;95.60
23122;DHT22;11730;51.248;22.534;2022-08-14T10:43:21;32.00;93.70
23122;DHT22;11730;51.248;22.534;2022-08-14T10:45:56;32.40;95.90
23122;DHT22;11730;51.248;22.534;2022-08-14T10:48:57;32.40;93.40
23122;DHT22;11730;51.248;22.534;2022-08-14T10:51:28;32.50;94.30
23122;DHT22;11730;51.248;22.534;2022-08-14T10:54:05;32.50;94.20
23122;DHT22;11730;51.248;22.534;2022-08-14T10:59:53;31.80;92.50
23122;DHT22;11730;51.248;22.534;2022-08-14T11:02:33;32.10;93.70
23122;DHT22;11730;51.248;22.534;2022-08-14T11:13:27;32.10;89.50
23122;DHT22;11730;51.248;22.534;2022-08-14T11:15:57;32.00;95.80
23122;DHT22;11730;51.248;22.534;2022-08-14T11:18:28;31.70;92.80
23122;DHT22;11730;51.248;22.534;2022-08-14T11:21:05;33.20;90.90
23122;DHT22;11730;51.248;22.534;2022-08-14T11:23:36;32.80;86.20
23122;DHT22;11730;51.248;22.534;2022-08-14T11:26:10;33.70;90.70
23122;DHT22;11730;51.248;22.534;2022-08-14T11:28:40;33.20;90.30
23122;DHT22;11730;51.248;22.534;2022-08-14T11:31:20;33.40;91.00
23122;DHT22;11730;51.248;22.534;2022-08-14T11:33:51;33.20;92.10
23122;DHT22;11730;51.248;22.534;2022-08-14T11:36:26;33.00;91.90
23122;DHT22;11730;51.248;22.534;2022-08-14T11:39:18;32.90;86.70
23122;DHT22;11730;51.248;22.534;2022-08-14T11:42:06;33.60;89.10
23122;DHT22;11730;51.248;22.534;2022-08-14T11:44:59;33.60;84.50
23122;DHT22;11730;51.248;22.534;2022-08-14T11:47:33;33.00;90.30
23122;DHT22;11730;51.248;22.534;2022-08-14T11:50:26;33.30;91.30
23122;DHT22;11730;51.248;22.534;2022-08-14T11:53:04;33.30;91.50
23122;DHT22;11730;51.248;22.534;2022-08-14T11:55:37;33.10;88.40
23122;DHT22;11730;51.248;22.534;2022-08-14T11:58:08;33.70;86.40
23122;DHT22;11730;51.248;22.534;2022-08-14T12:00:47;32.10;90.20
23122;DHT22;11730;51.248;22.534;2022-08-14T12:03:14;31.70;89.20
23122;DHT22;11730;51.248;22.534;2022-08-14T12:06:16;31.00;89.30
23122;DHT22;11730;51.248;22.534;2022-08-14T12:09:03;31.40;91.40
23122;DHT22;11730;51.248;22.534;2022-08-14T12:11:40;31.20;91.80
23122;DHT22;11730;51.248;22.534;2022-08-14T12:14:10;30.80;92.70
23122;DHT22;11730;51.248;22.534;2022-08-14T12:17:05;30.00;92.30
23122;DHT22;11730;51.248;22.534;2022-08-14T12:19:53;30.00;93.70
23122;DHT22;11730;51.248;22.534;2022-08-14T12:22:43;30.50;94.10
23122;DHT22;11730;51.248;22.534;2022-08-14T12:25:19;31.30;91.50
23122;DHT22;11730;51.248;22.534;2022-08-14T12:27:52;31.20;91.60
23122;DHT22;11730;51.248;22.534;2022-08-14T12:33:05;30.30;91.70
23122;DHT22;11730;51.248;22.534;2022-08-14T12:35:35;30.30;92.30
23122;DHT22;11730;51.248;22.534;2022-08-14T12:40:33;30.70;93.20
23122;DHT22;11730;51.248;22.534;2022-08-14T12:43:04;31.10;93.60
23122;DHT22;11730;51.248;22.534;2022-08-14T12:45:33;31.70;91.30
23122;DHT22;11730;51.248;22.534;2022-08-14T12:48:02;31.20;93.00
23122;DHT22;11730;51.248;22.534;2022-08-14T12:50:50;31.30;91.80
23122;DHT22;11730;51.248;22.534;2022-08-14T12:53:18;31.70;92.30
23122;DHT22;11730;51.248;22.534;2022-08-14T12:55:58;32.10;89.90
23122;DHT22;11730;51.248;22.534;2022-08-14T12:58:56;31.80;91.00
23122;DHT22;11730;51.248;22.534;2022-08-14T13:01:29;32.20;91.70
23122;DHT22;11730;51.248;22.534;2022-08-14T13:04:17;32.50;91.40
23122;DHT22;11730;51.248;22.534;2022-08-14T13:06:46;32.20;91.50
23122;DHT22;11730;51.248;22.534;2022-08-14T13:09:17;31.70;91.60
23122;DHT22;11730;51.248;22.534;2022-08-14T13:11:49;31.00;91.80
23122;DHT22;11730;51.248;22.534;2022-08-14T13:17:05;31.30;92.90
23122;DHT22;11730;51.248;22.534;2022-08-14T13:19:38;30.30;91.70
23122;DHT22;11730;51.248;22.534;2022-08-14T13:22:07;29.70;93.60
23122;DHT22;11730;51.248;22.534;2022-08-14T13:24:45;29.50;94.80
23122;DHT22;11730;51.248;22.534;2022-08-14T13:27:13;29.30;93.30
23122;DHT22;11730;51.248;22.534;2022-08-14T13:29:44;30.00;94.70
23122;DHT22;11730;51.248;22.534;2022-08-14T13:32:13;30.50;95.10
23122;DHT22;11730;51.248;22.534;2022-08-14T13:34:42;30.80;94.20
23122;DHT22;11730;51.248;22.534;2022-08-14T13:37:14;30.70;94.30
23122;DHT22;11730;51.248;22.534;2022-08-14T13:39:49;29.90;94.80
23122;DHT22;11730;51.248;22.534;2022-08-14T13:42:24;29.90;93.70
23122;DHT22;11730;51.248;22.534;2022-08-14T13:44:59;30.40;94.40
23122;DHT22;11730;51.248;22.534;2022-08-14T13:47:27;30.70;94.20
23122;DHT22;11730;51.248;22.534;2022-08-14T13:49:58;30.50;92.30
23122;DHT22;11730;51.248;22.534;2022-08-14T13:52:32;31.20;93.80
23122;DHT22;11730;51.248;22.534;2022-08-14T13:55:23;30.90;92.00
23122;DHT22;11730;51.248;22.534;2022-08-14T13:57:57;30.20;93.00
23122;DHT22;11730;51.248;22.534;2022-08-14T14:00:34;30.60;92.20
23122;DHT22;11730;51.248;22.534;2022-08-14T14:03:22;31.30;93.10
23122;DHT22;11730;51.248;22.534;2022-08-14T14:05:51;30.80;92.70
23122;DHT22;11730;51.248;22.534;2022-08-14T14:08:23;31.00;92.80
23122;DHT22;11730;51.248;22.534;2022-08-14T14:11:12;31.00;92.60
23122;DHT22;11730;51.248;22.534;2022-08-14T14:13:42;30.40;91.50
23122;DHT22;11730;51.248;22.534;2022-08-14T14:16:11;30.30;92.60
23122;DHT22;11730;51.248;22.534;2022-08-14T14:18:49;30.40;92.50
23122;DHT22;11730;51.248;22.534;2022-08-14T14:21:19;31.10;92.30
23122;DHT22;11730;51.248;22.534;2022-08-14T14:23:48;30.30;92.80
23122;DHT22;11730;51.248;22.534;2022-08-14T14:26:17;30.70;90.20
23122;DHT22;11730;51.248;22.534;2022-08-14T14:28:53;30.50;92.20
23122;DHT22;11730;51.248;22.534;2022-08-14T14:31:28;30.50;92.90
23122;DHT22;11730;51.248;22.534;2022-08-14T14:34:02;31.00;90.10
23122;DHT22;11730;51.248;22.534;2022-08-14T14:39:23;30.70;91.90
23122;DHT22;11730;51.248;22.534;2022-08-14T14:41:56;30.40;92.50
23122;DHT22;11730;51.248;22.534;2022-08-14T14:44:34;30.80;91.90
23122;DHT22;11730;51.248;22.534;2022-08-14T14:47:09;30.40;90.50
23122;DHT22;11730;51.248;22.534;2022-08-14T14:49:37;30.00;92.60
23122;DHT22;11730;51.248;22.534;2022-08-14T14:52:22;29.20;93.50
23122;DHT22;11730;51.248;22.534;2022-08-14T14:54:58;29.50;92.00
23122;DHT22;11730;51.248;22.534;2022-08-14T14:57:28;29.90;94.30
23122;DHT22;11730;51.248;22.534;2022-08-14T15:00:10;29.80;92.70
23122;DHT22;11730;51.248;22.534;2022-08-14T15:02:50;30.00;93.60
23122;DHT22;11730;51.248;22.534;2022-08-14T15:05:19;29.40;93.80
23122;DHT22;11730;51.248;22.534;2022-08-14T15:07:48;29.50;93.20
23122;DHT22;11730;51.248;22.534;2022-08-14T15:10:18;29.20;92.10
23122;DHT22;11730;51.248;22.534;2022-08-14T15:15:31;28.80;94.30
23122;DHT22;11730;51.248;22.534;2022-08-14T15:20:27;28.40;95.40
23122;DHT22;11730;51.248;22.534;2022-08-14T15:22:57;28.20;96.00
23122;DHT22;11730;51.248;22.534;2022-08-14T15:25:39;28.20;94.30
23122;DHT22;11730;51.248;22.534;2022-08-14T15:28:07;28.00;96.60
23122;DHT22;11730;51.248;22.534;2022-08-14T15:36:29;27.50;98.00
23122;DHT22;11730;51.248;22.534;2022-08-14T15:38:57;27.50;99.10
23122;DHT22;11730;51.248;22.534;2022-08-14T15:41:25;27.30;97.80
23122;DHT22;11730;51.248;22.534;2022-08-14T15:43:59;27.10;99.00
23122;DHT22;11730;51.248;22.534;2022-08-14T15:49:09;27.40;99.00
23122;DHT22;11730;51.248;22.534;2022-08-14T15:54:09;27.10;97.70
23122;DHT22;11730;51.248;22.534;2022-08-14T15:59:09;27.10;99.90
23122;DHT22;11730;51.248;22.534;2022-08-14T16:01:43;27.10;99.20
23122;DHT22;11730;51.248;22.534;2022-08-14T16:04:21;26.90;99.90
23122;DHT22;11730;51.248;22.534;2022-08-14T16:06:50;26.70;99.90
23122;DHT22;11730;51.248;22.534;2022-08-14T16:09:21;26.10;99.90
23122;DHT22;11730;51.248;22.534;2022-08-14T16:11:49;26.70;99.90
23122;DHT22;11730;51.248;22.534;2022-08-14T16:14:20;26.40;99.90
23122;DHT22;11730;51.248;22.534;2022-08-14T16:16:48;26.50;99.90
23122;DHT22;11730;51.248;22.534;2022-08-14T16:21:59;26.30;99.90
23122;DHT22;11730;51.248;22.534;2022-08-14T16:24:49;26.40;99.90
23122;DHT22;11730;51.248;22.534;2022-08-14T16:27:29;26.10;99.90
23122;DHT22;11730;51.248;22.534;2022-08-14T16:30:13;26.40;99.90
23122;DHT22;11730;51.248;22.534;2022-08-14T16:32:55;26.30;99.90
23122;DHT22;11730;51.248;22.534;2022-08-14T16:35:25;25.90;98.40
23122;DHT22;11730;51.248;22.534;2022-08-14T16:38:13;19.70;99.90
23122;DHT22;11730;51.248;22.534;2022-08-14T16:41:05;18.90;99.90
23122;DHT22;11730;51.248;22.534;2022-08-14T16:46:26;18.10;99.90
23122;DHT22;11730;51.248;22.534;2022-08-14T16:51:25;17.30;99.90
23122;DHT22;11730;51.248;22.534;2022-08-14T16:53:55;17.00;99.90
23122;DHT22;11730;51.248;22.534;2022-08-14T16:56:24;16.60;99.90
23122;DHT22;11730;51.248;22.534;2022-08-14T16:59:10;17.10;99.90
23122;DHT22;11730;51.248;22.534;2022-08-14T17:01:43;16.20;99.90
23122;DHT22;11730;51.248;22.534;2022-08-14T17:04:16;16.50;99.90
23122;DHT22;11730;51.248;22.534;2022-08-14T17:06:56;16.40;99.90
23122;DHT22;11730;51.248;22.534;2022-08-14T17:09:31;17.80;99.90
23122;DHT22;11730;51.248;22.534;2022-08-14T17:12:06;16.90;99.90
23122;DHT22;11730;51.248;22.534;2022-08-14T17:15:09;17.80;99.90
23122;DHT22;11730;51.248;22.534;2022-08-14T17:22:58;17.20;99.90
23122;DHT22;11730;51.248;22.534;2022-08-14T17:25:33;17.70;99.90
23122;DHT22;11730;51.248;22.534;2022-08-14T17:28:16;18.80;99.90
23122;DHT22;11730;51.248;22.534;2022-08-14T17:31:06;18.70;99.90
23122;DHT22;11730;51.248;22.534;2022-08-14T17:33:35;18.20;99.90
23122;DHT22;11730;51.248;22.534;2022-08-14T17:41:38;18.00;99.90
23122;DHT22;11730;51.248;22.534;2022-08-14T17:44:25;18.80;99.90
23122;DHT22;11730;51.248;22.534;2022-08-14T17:47:11;19.10;99.90
23122;DHT22;11730;51.248;22.534;2022-08-14T17:49:46;18.50;99.90
23122;DHT22;11730;51.248;22.534;2022-08-14T17:52:20;18.20;99.90
23122;DHT22;11730;51.248;22.534;2022-08-14T17:55:04;18.00;99.90
23122;DHT22;11730;51.248;22.534;2022-08-14T17:57:32;19.10;99.90
23122;DHT22;11730;51.248;22.534;2022-08-14T18:00:12;18.80;99.90
23122;DHT22;11730;51.248;22.534;2022-08-14T18:02:41;19.30;99.90
23122;DHT22;11730;51.248;22.534;2022-08-14T18:05:18;18.70;99.90
23122;DHT22;11730;51.248;22.534;2022-08-14T18:08:06;18.90;99.90
23122;DHT22;11730;51.248;22.534;2022-08-14T18:13:24;18.90;99.90
23122;DHT22;11730;51.248;22.534;2022-08-14T18:16:12;18.10;99.90
23122;DHT22;11730;51.248;22.534;2022-08-14T18:18:49;18.90;99.90